sensor_id;sensor_type;location;lat;lon;timestamp;P1;durP1;ratioP1;P2;durP2;ratioP2
20531;SDS011;10424;52.102;8.084;2022-09-03T00:02:21;4.03;;;1.30;;
20531;SDS011;10424;52.102;8.084;2022-09-03T00:04:52;2.42;;;1.33;;
20531;SDS011;10424;52.102;8.084;2022-09-03T00:07:24;1.40;;;1.30;;
20531;SDS011;10424;52.102;8.084;2022-09-03T00:09:54;3.17;;;1.30;;
20531;SDS011;10424;52.102;8.084;2022-09-03T00:12:23;1.40;;;1.30;;
20531;SDS011;10424;52.102;8.084;2022-09-03T00:14:52;3.33;;;1.33;;
20531;SDS011;10424;52.102;8.084;2022-09-03T00:17:24;4.60;;;1.30;;
20531;SDS011;10424;52.102;8.084;2022-09-03T00:19:54;1.40;;;1.30;;
20531;SDS011;10424;52.102;8.084;2022-09-03T00:22:23;3.00;;;1.25;;
20531;SDS011;10424;52.102;8.084;2022-09-03T00:24:53;2.08;;;1.20;;
20531;SDS011;10424;52.102;8.084;2022-09-03T00:27:21;2.05;;;1.38;;
20531;SDS011;10424;52.102;8.084;2022-09-03T00:29:50;1.77;;;1.27;;
20531;SDS011;10424;52.102;8.084;2022-09-03T00:32:19;1.35;;;1.20;;
20531;SDS011;10424;52.102;8.084;2022-09-03T00:34:50;1.73;;;1.20;;
20531;SDS011;10424;52.102;8.084;2022-09-03T00:37:19;2.05;;;1.17;;
20531;SDS011;10424;52.102;8.084;2022-09-03T00:39:47;1.10;;;1.00;;
20531;SDS011;10424;52.102;8.084;2022-09-03T00:42:21;1.20;;;1.10;;
20531;SDS011;10424;52.102;8.084;2022-09-03T00:44:59;2.17;;;1.30;;
20531;SDS011;10424;52.102;8.084;2022-09-03T00:47:29;1.33;;;1.00;;
20531;SDS011;10424;52.102;8.084;2022-09-03T00:50:04;3.40;;;1.23;;
20531;SDS011;10424;52.102;8.084;2022-09-03T00:52:45;1.98;;;1.00;;
20531;SDS011;10424;52.102;8.084;2022-09-03T00:55:17;1.85;;;1.15;;
20531;SDS011;10424;52.102;8.084;2022-09-03T00:57:50;4.30;;;1.20;;
20531;SDS011;10424;52.102;8.084;2022-09-03T01:00:21;8.65;;;1.50;;
20531;SDS011;10424;52.102;8.084;2022-09-03T01:02:53;2.20;;;1.35;;
20531;SDS011;10424;52.102;8.084;2022-09-03T01:05:30;1.33;;;1.20;;
20531;SDS011;10424;52.102;8.084;2022-09-03T01:08:04;3.50;;;1.25;;
20531;SDS011;10424;52.102;8.084;2022-09-03T01:10:34;1.20;;;1.10;;
20531;SDS011;10424;52.102;8.084;2022-09-03T01:13:06;3.42;;;1.10;;
20531;SDS011;10424;52.102;8.084;2022-09-03T01:15:40;1.52;;;1.20;;
20531;SDS011;10424;52.102;8.084;2022-09-03T01:18:14;5.13;;;1.20;;
20531;SDS011;10424;52.102;8.084;2022-09-03T01:20:52;2.00;;;1.67;;
20531;SDS011;10424;52.102;8.084;2022-09-03T01:26:11;3.83;;;1.27;;
20531;SDS011;10424;52.102;8.084;2022-09-03T01:28:46;4.05;;;1.20;;
20531;SDS011;10424;52.102;8.084;2022-09-03T01:31:21;1.25;;;1.00;;
20531;SDS011;10424;52.102;8.084;2022-09-03T01:33:52;3.38;;;1.10;;
20531;SDS011;10424;52.102;8.084;2022-09-03T01:36:23;3.15;;;1.20;;
20531;SDS011;10424;52.102;8.084;2022-09-03T01:38:54;5.25;;;1.30;;
20531;SDS011;10424;52.102;8.084;2022-09-03T01:41:25;2.25;;;1.20;;
20531;SDS011;10424;52.102;8.084;2022-09-03T01:44:29;2.97;;;1.20;;
20531;SDS011;10424;52.102;8.084;2022-09-03T01:46:59;2.20;;;1.20;;
20531;SDS011;10424;52.102;8.084;2022-09-03T01:49:29;3.95;;;1.30;;
20531;SDS011;10424;52.102;8.084;2022-09-03T01:51:58;1.45;;;1.20;;
20531;SDS011;10424;52.102;8.084;2022-09-03T01:54:37;2.47;;;1.15;;
20531;SDS011;10424;52.102;8.084;2022-09-03T01:57:13;2.22;;;1.17;;
20531;SDS011;10424;52.102;8.084;2022-09-03T01:59:46;2.50;;;1.10;;
20531;SDS011;10424;52.102;8.084;2022-09-03T02:02:15;1.73;;;1.15;;
20531;SDS011;10424;52.102;8.084;2022-09-03T02:04:54;2.35;;;1.10;;
20531;SDS011;10424;52.102;8.084;2022-09-03T02:07:21;5.95;;;1.40;;
20531;SDS011;10424;52.102;8.084;2022-09-03T02:09:49;2.10;;;1.20;;
20531;SDS011;10424;52.102;8.084;2022-09-03T02:12:17;2.50;;;1.20;;
20531;SDS011;10424;52.102;8.084;2022-09-03T02:14:47;3.47;;;1.20;;
20531;SDS011;10424;52.102;8.084;2022-09-03T02:17:14;1.83;;;1.13;;
20531;SDS011;10424;52.102;8.084;2022-09-03T02:19:41;3.00;;;1.20;;
20531;SDS011;10424;52.102;8.084;2022-09-03T02:22:09;1.85;;;1.13;;
20531;SDS011;10424;52.102;8.084;2022-09-03T02:24:38;5.05;;;1.30;;
20531;SDS011;10424;52.102;8.084;2022-09-03T02:27:08;3.60;;;1.20;;
20531;SDS011;10424;52.102;8.084;2022-09-03T02:29:35;3.40;;;1.20;;
20531;SDS011;10424;52.102;8.084;2022-09-03T02:32:04;1.75;;;1.20;;
20531;SDS011;10424;52.102;8.084;2022-09-03T02:34:32;1.98;;;1.17;;
20531;SDS011;10424;52.102;8.084;2022-09-03T02:36:59;3.17;;;1.20;;
20531;SDS011;10424;52.102;8.084;2022-09-03T02:39:26;2.83;;;1.30;;
20531;SDS011;10424;52.102;8.084;2022-09-03T02:41:54;2.65;;;1.20;;
20531;SDS011;10424;52.102;8.084;2022-09-03T02:44:23;1.25;;;1.10;;
20531;SDS011;10424;52.102;8.084;2022-09-03T02:46:56;5.05;;;1.30;;
20531;SDS011;10424;52.102;8.084;2022-09-03T02:49:25;2.30;;;1.17;;
20531;SDS011;10424;52.102;8.084;2022-09-03T02:51:56;2.22;;;1.20;;
20531;SDS011;10424;52.102;8.084;2022-09-03T02:54:24;2.47;;;1.20;;
20531;SDS011;10424;52.102;8.084;2022-09-03T02:56:52;2.15;;;1.25;;
20531;SDS011;10424;52.102;8.084;2022-09-03T02:59:19;5.03;;;1.35;;
20531;SDS011;10424;52.102;8.084;2022-09-03T03:01:47;3.45;;;1.20;;
20531;SDS011;10424;52.102;8.084;2022-09-03T03:04:15;3.17;;;1.20;;
20531;SDS011;10424;52.102;8.084;2022-09-03T03:06:43;2.45;;;1.08;;
20531;SDS011;10424;52.102;8.084;2022-09-03T03:09:11;2.75;;;1.30;;
20531;SDS011;10424;52.102;8.084;2022-09-03T03:11:38;1.50;;;1.10;;
20531;SDS011;10424;52.102;8.084;2022-09-03T03:14:05;5.60;;;1.20;;
20531;SDS011;10424;52.102;8.084;2022-09-03T03:16:33;1.80;;;1.15;;
20531;SDS011;10424;52.102;8.084;2022-09-03T03:19:00;3.15;;;1.20;;
20531;SDS011;10424;52.102;8.084;2022-09-03T03:21:27;2.70;;;1.30;;
20531;SDS011;10424;52.102;8.084;2022-09-03T03:23:56;1.30;;;1.20;;
20531;SDS011;10424;52.102;8.084;2022-09-03T03:26:23;3.78;;;1.20;;
20531;SDS011;10424;52.102;8.084;2022-09-03T03:28:54;4.35;;;1.40;;
20531;SDS011;10424;52.102;8.084;2022-09-03T03:31:22;1.95;;;1.30;;
20531;SDS011;10424;52.102;8.084;2022-09-03T03:33:50;1.80;;;1.30;;
20531;SDS011;10424;52.102;8.084;2022-09-03T03:36:18;2.60;;;1.15;;
20531;SDS011;10424;52.102;8.084;2022-09-03T03:38:45;2.47;;;1.23;;
20531;SDS011;10424;52.102;8.084;2022-09-03T03:41:14;1.90;;;1.27;;
20531;SDS011;10424;52.102;8.084;2022-09-03T03:43:42;1.38;;;1.10;;
20531;SDS011;10424;52.102;8.084;2022-09-03T03:46:10;2.50;;;1.30;;
20531;SDS011;10424;52.102;8.084;2022-09-03T03:48:37;2.22;;;1.38;;
20531;SDS011;10424;52.102;8.084;2022-09-03T03:51:06;2.03;;;1.23;;
20531;SDS011;10424;52.102;8.084;2022-09-03T03:53:34;1.35;;;1.10;;
20531;SDS011;10424;52.102;8.084;2022-09-03T03:56:02;1.52;;;1.33;;
20531;SDS011;10424;52.102;8.084;2022-09-03T03:58:31;3.10;;;1.10;;
20531;SDS011;10424;52.102;8.084;2022-09-03T04:01:03;2.47;;;1.30;;
20531;SDS011;10424;52.102;8.084;2022-09-03T04:03:30;2.00;;;1.30;;
20531;SDS011;10424;52.102;8.084;2022-09-03T04:05:58;1.27;;;1.17;;
20531;SDS011;10424;52.102;8.084;2022-09-03T04:08:27;2.50;;;1.45;;
20531;SDS011;10424;52.102;8.084;2022-09-03T04:10:58;3.95;;;1.55;;
20531;SDS011;10424;52.102;8.084;2022-09-03T04:13:27;1.77;;;1.38;;
20531;SDS011;10424;52.102;8.084;2022-09-03T04:16:00;2.22;;;1.20;;
20531;SDS011;10424;52.102;8.084;2022-09-03T04:18:27;1.23;;;1.10;;
20531;SDS011;10424;52.102;8.084;2022-09-03T04:20:57;2.13;;;1.38;;
20531;SDS011;10424;52.102;8.084;2022-09-03T04:23:25;2.85;;;1.35;;
20531;SDS011;10424;52.102;8.084;2022-09-03T04:25:53;1.60;;;1.30;;
20531;SDS011;10424;52.102;8.084;2022-09-03T04:28:21;3.25;;;1.35;;
20531;SDS011;10424;52.102;8.084;2022-09-03T04:30:48;2.00;;;1.40;;
20531;SDS011;10424;52.102;8.084;2022-09-03T04:33:17;2.40;;;1.50;;
20531;SDS011;10424;52.102;8.084;2022-09-03T04:35:44;2.40;;;1.30;;
20531;SDS011;10424;52.102;8.084;2022-09-03T04:38:11;2.05;;;1.50;;
20531;SDS011;10424;52.102;8.084;2022-09-03T04:40:39;2.80;;;1.42;;
20531;SDS011;10424;52.102;8.084;2022-09-03T04:43:06;3.13;;;1.55;;
20531;SDS011;10424;52.102;8.084;2022-09-03T04:45:34;1.38;;;1.20;;
20531;SDS011;10424;52.102;8.084;2022-09-03T04:48:01;3.35;;;1.30;;
20531;SDS011;10424;52.102;8.084;2022-09-03T04:50:31;1.92;;;1.50;;
20531;SDS011;10424;52.102;8.084;2022-09-03T04:52:59;2.28;;;1.20;;
20531;SDS011;10424;52.102;8.084;2022-09-03T04:55:27;4.03;;;1.48;;
20531;SDS011;10424;52.102;8.084;2022-09-03T04:58:00;5.03;;;1.33;;
20531;SDS011;10424;52.102;8.084;2022-09-03T05:00:28;5.75;;;1.55;;
20531;SDS011;10424;52.102;8.084;2022-09-03T05:02:55;2.85;;;1.25;;
20531;SDS011;10424;52.102;8.084;2022-09-03T05:05:26;4.00;;;1.52;;
20531;SDS011;10424;52.102;8.084;2022-09-03T05:07:57;4.55;;;1.30;;
20531;SDS011;10424;52.102;8.084;2022-09-03T05:10:25;4.70;;;1.50;;
20531;SDS011;10424;52.102;8.084;2022-09-03T05:12:56;2.30;;;1.60;;
20531;SDS011;10424;52.102;8.084;2022-09-03T05:15:24;3.40;;;1.50;;
20531;SDS011;10424;52.102;8.084;2022-09-03T05:17:54;4.82;;;1.30;;
20531;SDS011;10424;52.102;8.084;2022-09-03T05:20:22;1.67;;;1.35;;
20531;SDS011;10424;52.102;8.084;2022-09-03T05:22:49;5.10;;;1.40;;
20531;SDS011;10424;52.102;8.084;2022-09-03T05:25:18;2.65;;;1.48;;
20531;SDS011;10424;52.102;8.084;2022-09-03T05:27:47;1.75;;;1.42;;
20531;SDS011;10424;52.102;8.084;2022-09-03T05:30:14;4.32;;;1.52;;
20531;SDS011;10424;52.102;8.084;2022-09-03T05:32:42;3.58;;;2.13;;
20531;SDS011;10424;52.102;8.084;2022-09-03T05:35:09;2.78;;;1.48;;
20531;SDS011;10424;52.102;8.084;2022-09-03T05:37:36;3.85;;;1.48;;
20531;SDS011;10424;52.102;8.084;2022-09-03T05:40:04;4.47;;;1.50;;
20531;SDS011;10424;52.102;8.084;2022-09-03T05:42:36;6.00;;;1.85;;
20531;SDS011;10424;52.102;8.084;2022-09-03T05:45:05;3.90;;;1.35;;
20531;SDS011;10424;52.102;8.084;2022-09-03T05:47:35;2.47;;;1.50;;
20531;SDS011;10424;52.102;8.084;2022-09-03T05:50:03;3.65;;;1.75;;
20531;SDS011;10424;52.102;8.084;2022-09-03T05:52:31;2.40;;;1.55;;
20531;SDS011;10424;52.102;8.084;2022-09-03T05:54:58;2.42;;;1.35;;
20531;SDS011;10424;52.102;8.084;2022-09-03T05:57:26;1.92;;;1.55;;
20531;SDS011;10424;52.102;8.084;2022-09-03T05:59:55;1.63;;;1.40;;
20531;SDS011;10424;52.102;8.084;2022-09-03T06:02:22;2.97;;;1.58;;
20531;SDS011;10424;52.102;8.084;2022-09-03T06:04:50;4.15;;;1.70;;
20531;SDS011;10424;52.102;8.084;2022-09-03T06:07:17;1.75;;;1.40;;
20531;SDS011;10424;52.102;8.084;2022-09-03T06:09:45;1.33;;;1.23;;
20531;SDS011;10424;52.102;8.084;2022-09-03T06:12:12;2.53;;;1.55;;
20531;SDS011;10424;52.102;8.084;2022-09-03T06:14:39;2.03;;;1.38;;
20531;SDS011;10424;52.102;8.084;2022-09-03T06:17:08;7.30;;;1.55;;
20531;SDS011;10424;52.102;8.084;2022-09-03T06:19:37;1.55;;;1.45;;
20531;SDS011;10424;52.102;8.084;2022-09-03T06:22:04;3.05;;;1.42;;
20531;SDS011;10424;52.102;8.084;2022-09-03T06:24:31;4.63;;;1.80;;
20531;SDS011;10424;52.102;8.084;2022-09-03T06:26:59;3.35;;;1.60;;
20531;SDS011;10424;52.102;8.084;2022-09-03T06:29:26;2.10;;;1.45;;
20531;SDS011;10424;52.102;8.084;2022-09-03T06:31:53;5.28;;;1.33;;
20531;SDS011;10424;52.102;8.084;2022-09-03T06:34:22;2.03;;;1.40;;
20531;SDS011;10424;52.102;8.084;2022-09-03T06:36:51;3.60;;;1.48;;
20531;SDS011;10424;52.102;8.084;2022-09-03T06:39:18;2.92;;;1.30;;
20531;SDS011;10424;52.102;8.084;2022-09-03T06:41:45;5.03;;;1.40;;
20531;SDS011;10424;52.102;8.084;2022-09-03T06:44:15;1.77;;;1.50;;
20531;SDS011;10424;52.102;8.084;2022-09-03T06:46:43;2.42;;;1.33;;
20531;SDS011;10424;52.102;8.084;2022-09-03T06:49:12;3.38;;;1.33;;
20531;SDS011;10424;52.102;8.084;2022-09-03T06:51:41;5.70;;;1.45;;
20531;SDS011;10424;52.102;8.084;2022-09-03T06:54:09;2.40;;;1.50;;
20531;SDS011;10424;52.102;8.084;2022-09-03T06:56:37;2.60;;;1.20;;
20531;SDS011;10424;52.102;8.084;2022-09-03T06:59:05;3.60;;;1.40;;
20531;SDS011;10424;52.102;8.084;2022-09-03T07:01:32;4.68;;;1.20;;
20531;SDS011;10424;52.102;8.084;2022-09-03T07:04:00;2.58;;;1.30;;
20531;SDS011;10424;52.102;8.084;2022-09-03T07:06:29;3.10;;;1.20;;
20531;SDS011;10424;52.102;8.084;2022-09-03T07:08:58;3.35;;;1.20;;
20531;SDS011;10424;52.102;8.084;2022-09-03T07:11:26;2.17;;;1.00;;
20531;SDS011;10424;52.102;8.084;2022-09-03T07:13:55;2.72;;;1.30;;
20531;SDS011;10424;52.102;8.084;2022-09-03T07:16:23;5.10;;;1.30;;
20531;SDS011;10424;52.102;8.084;2022-09-03T07:18:51;3.78;;;1.30;;
20531;SDS011;10424;52.102;8.084;2022-09-03T07:21:20;1.52;;;1.30;;
20531;SDS011;10424;52.102;8.084;2022-09-03T07:23:48;6.38;;;1.13;;
20531;SDS011;10424;52.102;8.084;2022-09-03T07:26:19;2.42;;;1.10;;
20531;SDS011;10424;52.102;8.084;2022-09-03T07:28:47;4.22;;;1.15;;
20531;SDS011;10424;52.102;8.084;2022-09-03T07:31:15;2.67;;;1.20;;
20531;SDS011;10424;52.102;8.084;2022-09-03T07:33:43;2.60;;;1.00;;
20531;SDS011;10424;52.102;8.084;2022-09-03T07:36:12;1.67;;;1.27;;
20531;SDS011;10424;52.102;8.084;2022-09-03T07:38:40;3.65;;;1.23;;
20531;SDS011;10424;52.102;8.084;2022-09-03T07:41:09;2.03;;;1.20;;
20531;SDS011;10424;52.102;8.084;2022-09-03T07:43:38;3.63;;;1.30;;
20531;SDS011;10424;52.102;8.084;2022-09-03T07:46:07;3.17;;;1.20;;
20531;SDS011;10424;52.102;8.084;2022-09-03T07:48:37;1.50;;;1.00;;
20531;SDS011;10424;52.102;8.084;2022-09-03T07:51:05;1.63;;;1.20;;
20531;SDS011;10424;52.102;8.084;2022-09-03T07:53:32;2.58;;;1.10;;
20531;SDS011;10424;52.102;8.084;2022-09-03T07:56:01;1.90;;;1.10;;
20531;SDS011;10424;52.102;8.084;2022-09-03T07:58:28;1.70;;;1.02;;
20531;SDS011;10424;52.102;8.084;2022-09-03T08:00:57;1.85;;;1.10;;
20531;SDS011;10424;52.102;8.084;2022-09-03T08:03:25;2.55;;;1.00;;
20531;SDS011;10424;52.102;8.084;2022-09-03T08:05:52;1.77;;;1.10;;
20531;SDS011;10424;52.102;8.084;2022-09-03T08:08:19;3.03;;;1.27;;
20531;SDS011;10424;52.102;8.084;2022-09-03T08:10:47;2.15;;;1.10;;
20531;SDS011;10424;52.102;8.084;2022-09-03T08:13:15;4.10;;;1.30;;
20531;SDS011;10424;52.102;8.084;2022-09-03T08:15:42;6.43;;;1.35;;
20531;SDS011;10424;52.102;8.084;2022-09-03T08:18:11;5.43;;;1.15;;
20531;SDS011;10424;52.102;8.084;2022-09-03T08:20:39;4.10;;;0.98;;
20531;SDS011;10424;52.102;8.084;2022-09-03T08:23:06;1.95;;;0.93;;
20531;SDS011;10424;52.102;8.084;2022-09-03T08:25:34;7.28;;;1.15;;
20531;SDS011;10424;52.102;8.084;2022-09-03T08:28:01;1.27;;;1.02;;
20531;SDS011;10424;52.102;8.084;2022-09-03T08:30:28;1.60;;;1.10;;
20531;SDS011;10424;52.102;8.084;2022-09-03T08:32:56;2.58;;;1.00;;
20531;SDS011;10424;52.102;8.084;2022-09-03T08:35:24;1.83;;;0.90;;
20531;SDS011;10424;52.102;8.084;2022-09-03T08:37:53;2.17;;;1.08;;
20531;SDS011;10424;52.102;8.084;2022-09-03T08:40:21;2.80;;;0.93;;
20531;SDS011;10424;52.102;8.084;2022-09-03T08:42:55;2.28;;;1.00;;
20531;SDS011;10424;52.102;8.084;2022-09-03T08:45:24;1.40;;;1.00;;
20531;SDS011;10424;52.102;8.084;2022-09-03T08:47:54;5.38;;;1.20;;
20531;SDS011;10424;52.102;8.084;2022-09-03T08:50:27;2.28;;;1.10;;
20531;SDS011;10424;52.102;8.084;2022-09-03T08:52:56;2.80;;;1.00;;
20531;SDS011;10424;52.102;8.084;2022-09-03T08:55:25;1.27;;;1.00;;
20531;SDS011;10424;52.102;8.084;2022-09-03T08:57:55;5.78;;;1.10;;
20531;SDS011;10424;52.102;8.084;2022-09-03T09:00:23;3.33;;;1.15;;
20531;SDS011;10424;52.102;8.084;2022-09-03T09:02:52;6.22;;;1.08;;
20531;SDS011;10424;52.102;8.084;2022-09-03T09:05:22;3.47;;;0.88;;
20531;SDS011;10424;52.102;8.084;2022-09-03T09:07:52;1.48;;;1.00;;
20531;SDS011;10424;52.102;8.084;2022-09-03T09:10:24;5.70;;;1.05;;
20531;SDS011;10424;52.102;8.084;2022-09-03T09:12:57;2.85;;;1.00;;
20531;SDS011;10424;52.102;8.084;2022-09-03T09:15:31;3.33;;;1.00;;
20531;SDS011;10424;52.102;8.084;2022-09-03T09:18:05;1.45;;;1.10;;
20531;SDS011;10424;52.102;8.084;2022-09-03T09:20:38;3.08;;;1.13;;
20531;SDS011;10424;52.102;8.084;2022-09-03T09:23:09;1.55;;;1.00;;
20531;SDS011;10424;52.102;8.084;2022-09-03T09:25:42;2.58;;;0.85;;
20531;SDS011;10424;52.102;8.084;2022-09-03T09:28:12;2.33;;;1.02;;
20531;SDS011;10424;52.102;8.084;2022-09-03T09:30:42;6.30;;;1.00;;
20531;SDS011;10424;52.102;8.084;2022-09-03T09:33:11;2.95;;;0.98;;
20531;SDS011;10424;52.102;8.084;2022-09-03T09:35:38;3.40;;;1.10;;
20531;SDS011;10424;52.102;8.084;2022-09-03T09:38:09;2.42;;;0.82;;
20531;SDS011;10424;52.102;8.084;2022-09-03T09:40:37;1.88;;;1.00;;
20531;SDS011;10424;52.102;8.084;2022-09-03T09:43:07;2.10;;;1.05;;
20531;SDS011;10424;52.102;8.084;2022-09-03T09:45:35;6.68;;;1.05;;
20531;SDS011;10424;52.102;8.084;2022-09-03T09:48:06;2.38;;;1.08;;
20531;SDS011;10424;52.102;8.084;2022-09-03T09:50:35;1.83;;;0.98;;
20531;SDS011;10424;52.102;8.084;2022-09-03T09:53:03;2.10;;;0.90;;
20531;SDS011;10424;52.102;8.084;2022-09-03T09:55:48;2.08;;;1.00;;
20531;SDS011;10424;52.102;8.084;2022-09-03T09:58:17;1.63;;;0.90;;
20531;SDS011;10424;52.102;8.084;2022-09-03T10:00:53;3.10;;;1.33;;
20531;SDS011;10424;52.102;8.084;2022-09-03T10:03:21;3.05;;;0.90;;
20531;SDS011;10424;52.102;8.084;2022-09-03T10:05:55;3.22;;;0.98;;
20531;SDS011;10424;52.102;8.084;2022-09-03T10:08:23;1.15;;;0.90;;
20531;SDS011;10424;52.102;8.084;2022-09-03T10:10:52;2.05;;;1.00;;
20531;SDS011;10424;52.102;8.084;2022-09-03T10:13:23;1.48;;;1.00;;
20531;SDS011;10424;52.102;8.084;2022-09-03T10:15:54;3.28;;;1.00;;
20531;SDS011;10424;52.102;8.084;2022-09-03T10:18:37;2.97;;;1.00;;
20531;SDS011;10424;52.102;8.084;2022-09-03T10:21:09;6.38;;;1.05;;
20531;SDS011;10424;52.102;8.084;2022-09-03T10:23:40;2.95;;;0.90;;
20531;SDS011;10424;52.102;8.084;2022-09-03T10:26:11;4.13;;;1.13;;
20531;SDS011;10424;52.102;8.084;2022-09-03T10:28:40;3.33;;;1.00;;
20531;SDS011;10424;52.102;8.084;2022-09-03T10:31:12;2.03;;;1.00;;
20531;SDS011;10424;52.102;8.084;2022-09-03T10:33:46;2.85;;;1.00;;
20531;SDS011;10424;52.102;8.084;2022-09-03T10:36:16;1.48;;;1.10;;
20531;SDS011;10424;52.102;8.084;2022-09-03T10:38:45;2.85;;;0.75;;
20531;SDS011;10424;52.102;8.084;2022-09-03T10:41:18;1.58;;;0.80;;
20531;SDS011;10424;52.102;8.084;2022-09-03T10:46:33;2.10;;;0.90;;
20531;SDS011;10424;52.102;8.084;2022-09-03T10:51:57;1.05;;;0.80;;
20531;SDS011;10424;52.102;8.084;2022-09-03T10:54:30;3.67;;;0.93;;
20531;SDS011;10424;52.102;8.084;2022-09-03T10:57:02;2.17;;;0.90;;
20531;SDS011;10424;52.102;8.084;2022-09-03T10:59:36;1.25;;;0.85;;
20531;SDS011;10424;52.102;8.084;2022-09-03T11:02:14;2.65;;;0.80;;
20531;SDS011;10424;52.102;8.084;2022-09-03T11:04:45;1.63;;;0.95;;
20531;SDS011;10424;52.102;8.084;2022-09-03T11:07:19;4.60;;;1.00;;
20531;SDS011;10424;52.102;8.084;2022-09-03T11:09:48;2.13;;;1.00;;
20531;SDS011;10424;52.102;8.084;2022-09-03T11:12:19;2.78;;;1.00;;
20531;SDS011;10424;52.102;8.084;2022-09-03T11:14:49;3.50;;;1.10;;
20531;SDS011;10424;52.102;8.084;2022-09-03T11:17:19;3.20;;;1.05;;
20531;SDS011;10424;52.102;8.084;2022-09-03T11:19:49;3.05;;;0.95;;
20531;SDS011;10424;52.102;8.084;2022-09-03T11:22:17;1.67;;;0.95;;
20531;SDS011;10424;52.102;8.084;2022-09-03T11:24:49;2.83;;;1.00;;
20531;SDS011;10424;52.102;8.084;2022-09-03T11:27:22;2.13;;;0.90;;
20531;SDS011;10424;52.102;8.084;2022-09-03T11:29:52;2.03;;;0.85;;
20531;SDS011;10424;52.102;8.084;2022-09-03T11:32:23;2.25;;;1.00;;
20531;SDS011;10424;52.102;8.084;2022-09-03T11:34:52;3.63;;;1.00;;
20531;SDS011;10424;52.102;8.084;2022-09-03T11:37:21;1.90;;;0.80;;
20531;SDS011;10424;52.102;8.084;2022-09-03T11:39:56;3.60;;;0.80;;
20531;SDS011;10424;52.102;8.084;2022-09-03T11:42:27;2.50;;;0.93;;
20531;SDS011;10424;52.102;8.084;2022-09-03T11:44:58;2.22;;;0.90;;
20531;SDS011;10424;52.102;8.084;2022-09-03T11:47:36;3.50;;;0.90;;
20531;SDS011;10424;52.102;8.084;2022-09-03T11:50:05;4.30;;;1.00;;
20531;SDS011;10424;52.102;8.084;2022-09-03T11:52:33;2.75;;;1.00;;
20531;SDS011;10424;52.102;8.084;2022-09-03T11:55:05;2.88;;;0.90;;
20531;SDS011;10424;52.102;8.084;2022-09-03T11:57:38;1.40;;;1.00;;
20531;SDS011;10424;52.102;8.084;2022-09-03T12:00:08;3.63;;;1.00;;
20531;SDS011;10424;52.102;8.084;2022-09-03T12:02:41;2.83;;;0.90;;
20531;SDS011;10424;52.102;8.084;2022-09-03T12:05:13;2.05;;;0.80;;
20531;SDS011;10424;52.102;8.084;2022-09-03T12:10:28;4.40;;;0.90;;
20531;SDS011;10424;52.102;8.084;2022-09-03T12:13:02;2.35;;;0.90;;
20531;SDS011;10424;52.102;8.084;2022-09-03T12:15:36;1.67;;;0.93;;
20531;SDS011;10424;52.102;8.084;2022-09-03T12:18:07;1.20;;;0.88;;
20531;SDS011;10424;52.102;8.084;2022-09-03T12:20:45;3.35;;;1.02;;
20531;SDS011;10424;52.102;8.084;2022-09-03T12:23:24;3.70;;;0.90;;
20531;SDS011;10424;52.102;8.084;2022-09-03T12:25:53;4.57;;;1.10;;
20531;SDS011;10424;52.102;8.084;2022-09-03T12:28:24;1.30;;;0.95;;
20531;SDS011;10424;52.102;8.084;2022-09-03T12:31:05;2.97;;;1.10;;
20531;SDS011;10424;52.102;8.084;2022-09-03T12:33:39;2.05;;;1.10;;
20531;SDS011;10424;52.102;8.084;2022-09-03T12:36:25;8.32;;;1.20;;
20531;SDS011;10424;52.102;8.084;2022-09-03T12:38:53;1.75;;;0.93;;
20531;SDS011;10424;52.102;8.084;2022-09-03T12:41:21;3.75;;;0.90;;
20531;SDS011;10424;52.102;8.084;2022-09-03T12:43:52;2.03;;;0.90;;
20531;SDS011;10424;52.102;8.084;2022-09-03T12:46:24;4.45;;;1.10;;
20531;SDS011;10424;52.102;8.084;2022-09-03T12:48:55;3.28;;;1.20;;
20531;SDS011;10424;52.102;8.084;2022-09-03T12:51:29;5.45;;;1.13;;
20531;SDS011;10424;52.102;8.084;2022-09-03T12:53:57;2.92;;;1.00;;
20531;SDS011;10424;52.102;8.084;2022-09-03T12:56:25;5.10;;;1.10;;
20531;SDS011;10424;52.102;8.084;2022-09-03T12:59:00;1.15;;;0.90;;
20531;SDS011;10424;52.102;8.084;2022-09-03T13:01:31;3.75;;;0.90;;
20531;SDS011;10424;52.102;8.084;2022-09-03T13:04:01;2.70;;;1.10;;
20531;SDS011;10424;52.102;8.084;2022-09-03T13:06:30;2.22;;;0.93;;
20531;SDS011;10424;52.102;8.084;2022-09-03T13:08:59;2.60;;;1.10;;
20531;SDS011;10424;52.102;8.084;2022-09-03T13:11:27;3.97;;;1.20;;
20531;SDS011;10424;52.102;8.084;2022-09-03T13:14:00;2.28;;;1.15;;
20531;SDS011;10424;52.102;8.084;2022-09-03T13:16:42;2.88;;;1.27;;
20531;SDS011;10424;52.102;8.084;2022-09-03T13:19:14;1.95;;;1.13;;
20531;SDS011;10424;52.102;8.084;2022-09-03T13:21:47;2.22;;;1.10;;
20531;SDS011;10424;52.102;8.084;2022-09-03T13:24:20;2.33;;;1.10;;
20531;SDS011;10424;52.102;8.084;2022-09-03T13:26:52;2.35;;;1.20;;
20531;SDS011;10424;52.102;8.084;2022-09-03T13:29:38;3.03;;;1.20;;
20531;SDS011;10424;52.102;8.084;2022-09-03T13:32:10;2.97;;;1.20;;
20531;SDS011;10424;52.102;8.084;2022-09-03T13:34:46;2.42;;;1.23;;
20531;SDS011;10424;52.102;8.084;2022-09-03T13:37:22;3.60;;;1.15;;
20531;SDS011;10424;52.102;8.084;2022-09-03T13:39:52;2.17;;;1.42;;
20531;SDS011;10424;52.102;8.084;2022-09-03T13:42:21;6.15;;;1.52;;
20531;SDS011;10424;52.102;8.084;2022-09-03T13:44:55;2.67;;;1.20;;
20531;SDS011;10424;52.102;8.084;2022-09-03T13:47:26;2.15;;;1.30;;
20531;SDS011;10424;52.102;8.084;2022-09-03T13:49:56;1.70;;;1.10;;
20531;SDS011;10424;52.102;8.084;2022-09-03T13:52:45;1.30;;;1.10;;
20531;SDS011;10424;52.102;8.084;2022-09-03T13:55:15;1.73;;;1.15;;
20531;SDS011;10424;52.102;8.084;2022-09-03T13:57:46;1.95;;;1.17;;
20531;SDS011;10424;52.102;8.084;2022-09-03T14:00:23;3.92;;;1.20;;
20531;SDS011;10424;52.102;8.084;2022-09-03T14:02:53;2.65;;;1.38;;
20531;SDS011;10424;52.102;8.084;2022-09-03T14:05:31;2.13;;;1.05;;
20531;SDS011;10424;52.102;8.084;2022-09-03T14:08:03;2.13;;;1.20;;
20531;SDS011;10424;52.102;8.084;2022-09-03T14:10:36;2.17;;;1.25;;
20531;SDS011;10424;52.102;8.084;2022-09-03T14:13:11;2.08;;;1.20;;
20531;SDS011;10424;52.102;8.084;2022-09-03T14:15:43;2.33;;;1.20;;
20531;SDS011;10424;52.102;8.084;2022-09-03T14:18:15;3.95;;;1.40;;
20531;SDS011;10424;52.102;8.084;2022-09-03T14:20:52;4.43;;;1.10;;
20531;SDS011;10424;52.102;8.084;2022-09-03T14:23:24;2.58;;;1.10;;
20531;SDS011;10424;52.102;8.084;2022-09-03T14:25:54;3.60;;;1.20;;
20531;SDS011;10424;52.102;8.084;2022-09-03T14:28:27;3.00;;;1.20;;
20531;SDS011;10424;52.102;8.084;2022-09-03T14:30:58;1.45;;;1.10;;
20531;SDS011;10424;52.102;8.084;2022-09-03T14:33:29;2.25;;;1.20;;
20531;SDS011;10424;52.102;8.084;2022-09-03T14:36:02;1.75;;;1.20;;
20531;SDS011;10424;52.102;8.084;2022-09-03T14:38:46;2.88;;;1.17;;
20531;SDS011;10424;52.102;8.084;2022-09-03T14:41:21;2.42;;;1.20;;
20531;SDS011;10424;52.102;8.084;2022-09-03T14:44:02;3.42;;;1.10;;
20531;SDS011;10424;52.102;8.084;2022-09-03T14:46:38;2.72;;;1.20;;
20531;SDS011;10424;52.102;8.084;2022-09-03T14:52:02;1.73;;;1.10;;
20531;SDS011;10424;52.102;8.084;2022-09-03T14:54:36;5.65;;;1.10;;
20531;SDS011;10424;52.102;8.084;2022-09-03T14:57:11;2.60;;;1.10;;
20531;SDS011;10424;52.102;8.084;2022-09-03T14:59:44;2.88;;;1.10;;
20531;SDS011;10424;52.102;8.084;2022-09-03T15:02:22;3.08;;;1.30;;
20531;SDS011;10424;52.102;8.084;2022-09-03T15:04:56;2.30;;;1.20;;
20531;SDS011;10424;52.102;8.084;2022-09-03T15:07:32;3.15;;;1.20;;
20531;SDS011;10424;52.102;8.084;2022-09-03T15:10:03;2.90;;;1.25;;
20531;SDS011;10424;52.102;8.084;2022-09-03T15:12:34;3.50;;;1.35;;
20531;SDS011;10424;52.102;8.084;2022-09-03T15:15:04;2.55;;;1.20;;
20531;SDS011;10424;52.102;8.084;2022-09-03T15:17:41;5.22;;;1.38;;
20531;SDS011;10424;52.102;8.084;2022-09-03T15:20:21;1.48;;;1.15;;
20531;SDS011;10424;52.102;8.084;2022-09-03T15:22:57;2.85;;;1.25;;